Weather at Pakhokku Airport

Public forecast

Using degrees Celsius for public forecast. Weather courtesy of forecast.io.

Closest aviation weather report (METAR) to Pakhokku Airport

Report is more than 6 hours old.

Closest report is Mandalay International Airport, 51.6 nm (95.6 km) ENE. Retrieved 2021/11/28 11:30 UTC (6 hours ago):

VYMD 281130Z 00000KT 6000 HZ SCT020 27/19 Q1011

Closest aviation forecast (TAF) to Pakhokku Airport

Forecast is more than 6 hours old.

Closest forecast is Mandalay International Airport, 51.6 nm (95.6 km) ENE. Retrieved 2021/11/28 06:00 UTC (12 hours ago):

TAF VYMD 280500Z 2806/2906 36003KT 7000 SCT025 TEMPO 2806/2812 34005KT 7000 BKN018 FEW020CB